Texarkana Regional Webb Field
KTXK : rendu visible

Aérodrome :











RETROUVEZ-NOUS SUR...

 
LOGIN :

S'inscrire | Disclaimer

   EN    FR    IT 

 









Légende :    VFR   VFR Marginal   IFR   IFR Intensif   IFR Très Intensif
Visi : 
Plafond : 
>= 8 km
>= 3000ft
5 à 8 km
1000 à 3000 ft
1500m à 5 km
500 à 1000 ft
800 à 1500m
200 à 500 ft
< 800m
< 200 ft
Symboles :   Orages  Brouillard  Fortes neiges  Fortes précipitations  Vent > 20 kt






- Altitude de l'aérodrome : 390 ft
- Code IATA : TXK


KTXK - Texarkana Regional Webb Field

DERNIER METAR :
  • 241453Z 22011KT 10SM BKN018 BKN023 OVC030 17/14 A2970 RMK AO2 SLP054 T01670144 56010

METARs EXPIRÉS :
  • 241427Z 19012KT 10SM SCT015 BKN020 17/14 A2969 RMK AO2 T01670144
  • 241353Z 20010KT 10SM OVC013 16/14 A2970 RMK AO2 SLP056 T01610144
  • 241314Z 20011G16KT 10SM BKN012 OVC019 16/14 A2972 RMK AO2 T01560144
  • 241307Z 19009KT 10SM BKN009 BKN014 OVC019 16/14 A2972 RMK AO2 CIG 008V013 T01560144
  • 241253Z 20011KT 10SM OVC012 16/14 A2972 RMK AO2 SLP063 T01560144
  • 241231Z 20011G17KT 10SM BKN010 OVC014 16/14 A2973 RMK AO2 CIG 007V012 T01560139

TAF KTXK
Valide du 24 à 12h jusqu'au 25 à 12h UTC


241120Z 2412/2512 19013KT P6SM OVC008
FM241300 20013G21KT P6SM OVC023
FM241700 24018G25KT P6SM OVC035
FM250100 27010G20KT P6SM SCT070



MET'MAP, la Météo Aéronautique d'un coup d'oeil ! - Copyright ORBIFLY Décembre 2007 - Disclaimer

ORBIFLY MET'MAP TEAM :

Programmation & Développement : Alexandra Zaïnal
Sur une idée originale de : Baudouin d'Aumeries
Assistance à la programmation : Marc-Olivier Méhu
Soutien technique & logistique : Manuel Goepfert

Contact : metmap@orbifly.com




SOURCES & CREDITS :

   NOAA       Earth
Advisory